Terminal Aerodrome Forecast
Issued by NWS El Paso, TX

Home | Current Version | Previous Version | Text Only | Print | Product List | Glossary On
Versions: 1 2 3 4 5 6 7 8 9 10 11 12 13 14 15 16
000
FTUS44 KEPZ 291720
TAFELP
TAF
KELP 291720Z 2918/3018 28020G30KT P6SM FEW100
     FM300300 28017G25KT P6SM SKC
     FM300600 28010KT P6SM SKC
     FM301400 24012KT P6SM SKC=

USA.gov is the U.S. government's official web portal to all federal, state and local government web resources and services.